Naniwa Maru No.1 — JD3716 — position and weather

sailwx.info

Track history (hours):
 
Tides and Currents Weather Stations Pressure Air Temp Water Temp Dewpoint Dewpoint Depression Visibility Wind Speed Wind Dir Waves Ship Positions

Naniwa Maru No.1

Last reported at 2017-Nov-15 05:54 UTC. Time now 2017-Nov-17 23:14 UTC.
Position N 34°37' E 135°01'.

Length 105 m; draft 6.4 m.

Type: Tanker. MMSI: 431005655.

Date/timePositionNaut miles runAvg speedWind from/ knotsBaromVisibWave heightAir tempDewpointWater temp
2017-Nov-15 05:54N 34°37' E 135°01'513.2
2017-Nov-15 05:31N 34°36' E 135°08'714.4
2017-Nov-15 05:00N 34°36' E 135°16'713.3
2017-Nov-15 04:30N 34°36' E 135°24'2 0.4
2017-Nov-15 00:30N 34°35' E 135°26'0 0.0
2017-Nov-15 00:00N 34°35' E 135°26'0 0.0
2017-Nov-14 23:30N 34°35' E 135°26'3 5.3
2017-Nov-14 23:00N 34°36' E 135°23'1 1.7
2017-Nov-14 22:22N 34°36' E 135°23'0 0.0
2017-Nov-14 21:10N 34°36' E 135°23'0 0.0
2017-Nov-14 20:58N 34°36' E 135°23'0 0.0
2017-Nov-14 20:28N 34°36' E 135°23'0 0.0
2017-Nov-14 19:57N 34°36' E 135°23'0 0.0
2017-Nov-14 19:28N 34°36' E 135°23'0 0.0
2017-Nov-14 18:58N 34°36' E 135°23'0 0.0
2017-Nov-14 18:04N 34°36' E 135°23'0 0.1
2017-Nov-14 17:58N 34°36' E 135°23'0 0.1
2017-Nov-14 17:28N 34°36' E 135°22'0 0.1
2017-Nov-14 16:58N 34°36' E 135°23'0 0.1
2017-Nov-14 16:28N 34°36' E 135°22'0 0.0
2017-Nov-14 15:40N 34°36' E 135°22'0 0.1
2017-Nov-14 15:16N 34°36' E 135°22'0 1.1
2017-Nov-14 15:00N 34°36' E 135°22'713.3
2017-Nov-14 14:30N 34°34' E 135°14'815.3
2017-Nov-14 14:00N 34°34' E 135°05'714.9
2017-Nov-14 13:30N 34°36' E 134°56'10 0.3
2017-Nov-13 02:00N 34°35' E 135°08'814.1
2017-Nov-13 01:27N 34°37' E 134°59'  
2017-Nov-05 11:03N 35°32' E 140°01'0 3.6
2017-Nov-05 10:59N 35°32' E 140°02'  
Track history (hours):
 
Tides and Currents Weather Stations Pressure Air Temp Water Temp Dewpoint Dewpoint Depression Visibility Wind Speed Wind Dir Waves Ship Positions

Naniwa Maru No.1

Last reported at 2017-Nov-15 05:54 UTC. Time now 2017-Nov-17 23:14 UTC.
Position N 34°37' E 135°01'.

Length 105 m; draft 6.4 m.

Type: Tanker. MMSI: 431005655.

Date/timePositionNaut miles runAvg speedWind from/ knotsBaromVisibWave heightAir tempDewpointWater temp
2017-Nov-15 05:54N 34°37' E 135°01'513.2
2017-Nov-15 05:31N 34°36' E 135°08'714.4
2017-Nov-15 05:00N 34°36' E 135°16'713.3
2017-Nov-15 04:30N 34°36' E 135°24'2 0.4
2017-Nov-15 00:30N 34°35' E 135°26'0 0.0
2017-Nov-15 00:00N 34°35' E 135°26'0 0.0
2017-Nov-14 23:30N 34°35' E 135°26'3 5.3
2017-Nov-14 23:00N 34°36' E 135°23'1 1.7
2017-Nov-14 22:22N 34°36' E 135°23'0 0.0
2017-Nov-14 21:10N 34°36' E 135°23'0 0.0
2017-Nov-14 20:58N 34°36' E 135°23'0 0.0
2017-Nov-14 20:28N 34°36' E 135°23'0 0.0
2017-Nov-14 19:57N 34°36' E 135°23'0 0.0
2017-Nov-14 19:28N 34°36' E 135°23'0 0.0
2017-Nov-14 18:58N 34°36' E 135°23'0 0.0
2017-Nov-14 18:04N 34°36' E 135°23'0 0.1
2017-Nov-14 17:58N 34°36' E 135°23'0 0.1
2017-Nov-14 17:28N 34°36' E 135°22'0 0.1
2017-Nov-14 16:58N 34°36' E 135°23'0 0.1
2017-Nov-14 16:28N 34°36' E 135°22'0 0.0
2017-Nov-14 15:40N 34°36' E 135°22'0 0.1
2017-Nov-14 15:16N 34°36' E 135°22'0 1.1
2017-Nov-14 15:00N 34°36' E 135°22'713.3
2017-Nov-14 14:30N 34°34' E 135°14'815.3
2017-Nov-14 14:00N 34°34' E 135°05'714.9
2017-Nov-14 13:30N 34°36' E 134°56'10 0.3
2017-Nov-13 02:00N 34°35' E 135°08'814.1
2017-Nov-13 01:27N 34°37' E 134°59'  
2017-Nov-05 11:03N 35°32' E 140°01'0 3.6
2017-Nov-05 10:59N 35°32' E 140°02'  

Dump ship's entire track history